Time,TemperatureF,DewpointF,PressureIn,WindDirection,WindDirectionDegrees,WindSpeedMPH,WindSpeedGustMPH,Humidity,HourlyPrecipIn,Conditions,Clouds,dailyrainin,SoftwareType,DateUTC
2013-11-30 00:02:00,42.4,37.6,30.31,SSW,204,0.0,2.0,83,0.00,,,0.00,meteohub,2013-11-30 08:02:00,
2013-11-30 00:07:00,42.4,37.6,30.31,SSW,204,0.0,2.0,83,0.00,,,0.00,meteohub,2013-11-30 08:07:00,
2013-11-30 00:12:00,42.3,37.8,30.31,SSW,204,0.0,1.0,84,0.00,,,0.00,meteohub,2013-11-30 08:12:00,
2013-11-30 00:17:00,42.3,38.1,30.31,SSW,204,1.0,1.0,85,0.00,,,0.00,meteohub,2013-11-30 08:17:00,
2013-11-30 00:22:00,42.3,37.8,30.31,SSW,204,0.0,2.0,84,0.00,,,0.00,meteohub,2013-11-30 08:22:00,
2013-11-30 00:27:00,42.3,37.8,30.31,SSW,204,0.0,2.0,84,0.00,,,0.00,meteohub,2013-11-30 08:27:00,
2013-11-30 00:32:00,42.3,37.8,30.31,SSW,204,2.0,2.0,84,0.00,,,0.00,meteohub,2013-11-30 08:32:00,
2013-11-30 00:37:00,42.3,37.8,30.31,SSW,204,1.0,2.0,84,0.00,,,0.00,meteohub,2013-11-30 08:37:00,
2013-11-30 00:42:00,42.3,37.8,30.31,SSW,204,1.0,2.0,84,0.00,,,0.00,meteohub,2013-11-30 08:42:00,
2013-11-30 00:47:00,42.1,37.6,30.31,SSW,204,1.0,2.0,84,0.00,,,0.00,meteohub,2013-11-30 08:47:00,
2013-11-30 00:52:00,41.7,37.2,30.30,SSW,204,0.0,2.0,84,0.00,,,0.00,meteohub,2013-11-30 08:52:00,
2013-11-30 00:57:00,41.7,37.6,30.30,SSW,204,0.0,2.0,85,0.00,,,0.00,meteohub,2013-11-30 08:57:00,
2013-11-30 01:02:00,42.1,37.9,30.30,SSW,204,1.0,2.0,85,0.00,,,0.00,meteohub,2013-11-30 09:02:00,
2013-11-30 01:07:00,42.1,37.6,30.30,SSW,204,0.0,2.0,84,0.00,,,0.00,meteohub,2013-11-30 09:07:00,
2013-11-30 01:12:00,41.9,37.4,30.30,SSW,204,0.0,2.0,84,0.00,,,0.00,meteohub,2013-11-30 09:12:00,
2013-11-30 01:17:00,41.9,37.4,30.30,SSW,204,0.0,2.0,84,0.00,,,0.00,meteohub,2013-11-30 09:17:00,
2013-11-30 01:22:00,42.1,38.1,30.31,SSW,204,0.0,2.0,86,0.00,,,0.00,meteohub,2013-11-30 09:22:00,
2013-11-30 01:27:00,42.4,38.5,30.31,SSW,204,1.0,2.0,86,0.00,,,0.00,meteohub,2013-11-30 09:27:00,
2013-11-30 01:32:00,42.4,38.3,30.31,SSW,204,0.0,3.0,85,0.00,,,0.00,meteohub,2013-11-30 09:32:00,
2013-11-30 01:37:00,42.6,37.8,30.31,SSW,204,0.0,3.0,83,0.00,,,0.00,meteohub,2013-11-30 09:37:00,
2013-11-30 01:42:00,42.3,37.2,30.31,SSW,204,0.0,3.0,82,0.00,,,0.00,meteohub,2013-11-30 09:42:00,
2013-11-30 01:47:00,42.1,37.2,30.31,SSW,204,0.0,2.0,83,0.00,,,0.00,meteohub,2013-11-30 09:47:00,
2013-11-30 01:52:00,41.7,37.2,30.31,SSW,204,1.0,1.0,84,0.00,,,0.00,meteohub,2013-11-30 09:52:00,
2013-11-30 01:58:00,42.1,37.6,30.31,SSW,204,1.0,3.0,84,0.00,,,0.00,meteohub,2013-11-30 09:58:00,
2013-11-30 02:03:00,42.1,37.6,30.31,SSW,204,0.0,3.0,84,0.00,,,0.00,meteohub,2013-11-30 10:03:00,
2013-11-30 02:08:00,41.9,37.4,30.31,SSW,204,1.0,3.0,84,0.00,,,0.00,meteohub,2013-11-30 10:08:00,
2013-11-30 02:13:00,41.7,37.2,30.31,SSW,204,2.0,3.0,84,0.00,,,0.00,meteohub,2013-11-30 10:13:00,
2013-11-30 02:18:00,41.5,37.6,30.31,SSW,204,1.0,3.0,86,0.00,,,0.00,meteohub,2013-11-30 10:18:00,
2013-11-30 02:23:00,41.7,37.8,30.32,SSW,204,2.0,3.0,86,0.00,,,0.00,meteohub,2013-11-30 10:23:00,
2013-11-30 02:28:00,42.1,37.9,30.32,SSW,204,0.0,3.0,85,0.00,,,0.00,meteohub,2013-11-30 10:28:00,
2013-11-30 02:33:00,41.7,37.2,30.32,SSW,204,1.0,3.0,84,0.00,,,0.00,meteohub,2013-11-30 10:33:00,
2013-11-30 02:38:00,41.5,37.4,30.32,SSW,204,0.0,3.0,85,0.00,,,0.00,meteohub,2013-11-30 10:38:00,
2013-11-30 02:43:00,41.7,37.6,30.32,SSW,204,2.0,3.0,85,0.00,,,0.00,meteohub,2013-11-30 10:43:00,
2013-11-30 02:48:00,41.5,37.0,30.32,SSW,204,3.0,3.0,84,0.00,,,0.00,meteohub,2013-11-30 10:48:00,
2013-11-30 02:53:00,41.7,37.8,30.32,NE,49,3.0,4.0,86,0.00,,,0.00,meteohub,2013-11-30 10:53:00,
2013-11-30 02:58:00,43.5,39.0,30.32,NE,36,4.0,5.0,84,0.00,,,0.00,meteohub,2013-11-30 10:58:00,
2013-11-30 03:03:00,44.1,38.7,30.31,NE,38,1.0,5.0,81,0.00,,,0.00,meteohub,2013-11-30 11:03:00,
2013-11-30 03:08:00,44.2,38.8,30.31,NE,38,3.0,5.0,81,0.00,,,0.00,meteohub,2013-11-30 11:08:00,
2013-11-30 03:13:00,44.4,39.0,30.31,NE,38,2.0,4.0,81,0.00,,,0.00,meteohub,2013-11-30 11:13:00,
2013-11-30 03:18:00,44.6,38.8,30.31,NE,38,1.0,4.0,80,0.00,,,0.00,meteohub,2013-11-30 11:18:00,
2013-11-30 03:23:00,44.8,39.0,30.31,NE,38,0.0,3.0,80,0.00,,,0.00,meteohub,2013-11-30 11:23:00,
2013-11-30 03:28:00,44.4,38.7,30.31,NE,38,1.0,3.0,80,0.00,,,0.00,meteohub,2013-11-30 11:28:00,
2013-11-30 03:33:00,44.8,39.0,30.31,NE,38,2.0,2.0,80,0.00,,,0.00,meteohub,2013-11-30 11:33:00,
2013-11-30 03:38:00,45.1,39.0,30.31,NE,38,2.0,3.0,79,0.00,,,0.00,meteohub,2013-11-30 11:38:00,
2013-11-30 03:43:00,45.7,39.2,30.31,NE,38,1.0,3.0,78,0.00,,,0.00,meteohub,2013-11-30 11:43:00,
2013-11-30 03:48:00,45.7,39.2,30.31,NE,38,3.0,3.0,78,0.00,,,0.00,meteohub,2013-11-30 11:48:00,
2013-11-30 03:53:00,45.5,39.0,30.31,NE,38,3.0,3.0,78,0.00,,,0.00,meteohub,2013-11-30 11:53:00,
2013-11-30 03:58:00,45.3,38.8,30.31,NE,38,1.0,4.0,78,0.00,,,0.00,meteohub,2013-11-30 11:58:00,
2013-11-30 04:03:00,45.1,38.7,30.32,NE,38,3.0,4.0,78,0.00,,,0.00,meteohub,2013-11-30 12:03:00,
2013-11-30 04:08:00,45.0,38.5,30.32,NE,38,3.0,4.0,78,0.00,,,0.00,meteohub,2013-11-30 12:08:00,
2013-11-30 04:13:00,45.1,38.7,30.32,NE,38,3.0,4.0,78,0.00,,,0.00,meteohub,2013-11-30 12:13:00,
2013-11-30 04:18:00,45.1,38.7,30.32,NE,39,3.0,4.0,78,0.00,,,0.00,meteohub,2013-11-30 12:18:00,
2013-11-30 04:23:00,45.1,38.7,30.32,NE,41,4.0,4.0,78,0.00,,,0.00,meteohub,2013-11-30 12:23:00,
2013-11-30 04:28:00,45.7,38.8,30.32,NE,42,3.0,5.0,77,0.00,,,0.00,meteohub,2013-11-30 12:28:00,
2013-11-30 04:33:00,46.2,39.0,30.32,NE,41,2.0,5.0,76,0.00,,,0.00,meteohub,2013-11-30 12:33:00,
2013-11-30 04:38:00,46.8,39.2,30.32,NE,41,3.0,5.0,75,0.00,,,0.00,meteohub,2013-11-30 12:38:00,
2013-11-30 04:43:00,46.6,38.7,30.32,NE,41,3.0,4.0,74,0.00,,,0.00,meteohub,2013-11-30 12:43:00,
2013-11-30 04:48:00,46.6,38.7,30.32,NE,39,4.0,4.0,74,0.00,,,0.00,meteohub,2013-11-30 12:48:00,
2013-11-30 04:53:00,46.8,38.8,30.32,NE,42,2.0,5.0,74,0.00,,,0.00,meteohub,2013-11-30 12:53:00,
2013-11-30 04:58:00,47.5,38.8,30.32,NE,41,4.0,5.0,72,0.00,,,0.00,meteohub,2013-11-30 12:58:00,
2013-11-30 05:03:00,47.7,38.7,30.32,NE,42,4.0,5.0,71,0.00,,,0.00,meteohub,2013-11-30 13:03:00,
2013-11-30 05:08:00,48.0,38.7,30.32,NE,43,3.0,5.0,70,0.00,,,0.00,meteohub,2013-11-30 13:08:00,
2013-11-30 05:13:00,47.8,38.8,30.32,NE,42,4.0,5.0,71,0.00,,,0.00,meteohub,2013-11-30 13:13:00,
2013-11-30 05:18:00,47.7,38.3,30.32,NE,42,4.0,5.0,70,0.00,,,0.00,meteohub,2013-11-30 13:18:00,
2013-11-30 05:23:00,47.5,38.5,30.32,NNW,327,4.0,5.0,71,0.00,,,0.00,meteohub,2013-11-30 13:23:00,
2013-11-30 05:28:00,47.5,38.5,30.32,NNW,327,4.0,5.0,71,0.00,,,0.00,meteohub,2013-11-30 13:28:00,
2013-11-30 05:33:00,47.3,37.9,30.32,NNW,327,4.0,5.0,70,0.00,,,0.00,meteohub,2013-11-30 13:33:00,
2013-11-30 05:38:00,47.5,38.5,30.32,NNW,327,3.0,5.0,71,0.00,,,0.00,meteohub,2013-11-30 13:38:00,
2013-11-30 05:43:00,47.3,38.3,30.32,NNW,327,0.0,4.0,71,0.00,,,0.00,meteohub,2013-11-30 13:43:00,
2013-11-30 05:48:00,47.1,38.5,30.32,NNW,327,2.0,4.0,72,0.00,,,0.00,meteohub,2013-11-30 13:48:00,
2013-11-30 05:53:00,46.8,38.5,30.32,NNW,327,4.0,4.0,73,0.00,,,0.00,meteohub,2013-11-30 13:53:00,
2013-11-30 05:58:00,46.4,38.5,30.32,North,5,4.0,4.0,74,0.00,,,0.00,meteohub,2013-11-30 13:58:00,
2013-11-30 06:03:00,46.4,38.8,30.32,North,5,3.0,4.0,75,0.00,,,0.00,meteohub,2013-11-30 14:03:00,
2013-11-30 06:08:00,46.4,38.8,30.32,North,5,3.0,4.0,75,0.00,,,0.00,meteohub,2013-11-30 14:08:00,
2013-11-30 06:13:00,46.2,39.0,30.32,North,5,4.0,5.0,76,0.00,,,0.00,meteohub,2013-11-30 14:13:00,
2013-11-30 06:18:00,46.2,39.0,30.32,North,11,3.0,5.0,76,0.00,,,0.00,meteohub,2013-11-30 14:18:00,
2013-11-30 06:23:00,46.9,38.7,30.32,NNE,15,3.0,5.0,73,0.00,,,0.00,meteohub,2013-11-30 14:23:00,
2013-11-30 06:28:00,47.7,39.4,30.32,NNE,15,0.0,5.0,73,0.00,,,0.00,meteohub,2013-11-30 14:28:00,
2013-11-30 06:34:00,47.7,39.4,30.33,NNE,15,1.0,5.0,73,0.00,,,0.00,meteohub,2013-11-30 14:34:00,
2013-11-30 06:39:00,47.7,39.0,30.33,NNE,15,0.0,5.0,72,0.00,,,0.00,meteohub,2013-11-30 14:39:00,
2013-11-30 06:44:00,47.7,39.0,30.33,NNE,17,2.0,4.0,72,0.00,,,0.00,meteohub,2013-11-30 14:44:00,
2013-11-30 06:49:00,48.0,38.7,30.33,NE,35,4.0,4.0,70,0.00,,,0.00,meteohub,2013-11-30 14:49:00,
2013-11-30 06:54:00,48.7,38.7,30.34,NE,36,4.0,6.0,68,0.00,,,0.00,meteohub,2013-11-30 14:54:00,
2013-11-30 06:59:00,49.8,38.1,30.33,NE,37,4.0,6.0,64,0.00,,,0.00,meteohub,2013-11-30 14:59:00,
2013-11-30 07:04:00,50.7,38.7,30.34,NE,39,4.0,6.0,63,0.00,,,0.00,meteohub,2013-11-30 15:04:00,
2013-11-30 07:09:00,50.5,38.5,30.34,NE,39,3.0,6.0,63,0.00,,,0.00,meteohub,2013-11-30 15:09:00,
2013-11-30 07:14:00,50.2,38.1,30.34,NE,39,4.0,6.0,63,0.00,,,0.00,meteohub,2013-11-30 15:14:00,
2013-11-30 07:19:00,50.4,38.3,30.34,NE,41,5.0,6.0,63,0.00,,,0.00,meteohub,2013-11-30 15:19:00,
2013-11-30 07:24:00,51.1,38.1,30.34,NE,44,4.0,6.0,61,0.00,,,0.00,meteohub,2013-11-30 15:24:00,
2013-11-30 07:29:00,51.6,38.1,30.33,NE,44,5.0,7.0,60,0.00,,,0.00,meteohub,2013-11-30 15:29:00,
2013-11-30 07:34:00,51.3,38.3,30.33,NE,44,4.0,7.0,61,0.00,,,0.00,meteohub,2013-11-30 15:34:00,
2013-11-30 07:39:00,50.5,37.6,30.33,NE,44,2.0,7.0,61,0.00,,,0.00,meteohub,2013-11-30 15:39:00,
2013-11-30 07:44:00,50.0,38.7,30.33,NE,44,3.0,5.0,65,0.00,,,0.00,meteohub,2013-11-30 15:44:00,
2013-11-30 07:49:00,49.3,37.9,30.33,NE,44,0.0,5.0,65,0.00,,,0.00,meteohub,2013-11-30 15:49:00,
2013-11-30 07:54:00,48.9,38.1,30.34,NE,44,0.0,5.0,66,0.00,,,0.00,meteohub,2013-11-30 15:54:00,
2013-11-30 07:59:00,48.6,38.5,30.34,NE,44,0.0,5.0,68,0.00,,,0.00,meteohub,2013-11-30 15:59:00,
2013-11-30 08:04:00,48.4,37.9,30.34,NE,44,0.0,3.0,67,0.00,,,0.00,meteohub,2013-11-30 16:04:00,
2013-11-30 08:09:00,48.0,37.6,30.34,NE,44,0.0,2.0,67,0.00,,,0.00,meteohub,2013-11-30 16:09:00,
2013-11-30 08:14:00,47.8,38.1,30.34,NE,44,0.0,1.0,69,0.00,,,0.00,meteohub,2013-11-30 16:14:00,
2013-11-30 08:19:00,47.8,37.8,30.34,NE,44,0.0,0.0,68,0.00,,,0.00,meteohub,2013-11-30 16:19:00,
2013-11-30 08:24:00,47.7,37.9,30.34,NE,44,0.0,0.0,69,0.00,,,0.00,meteohub,2013-11-30 16:24:00,
2013-11-30 08:29:00,47.7,38.3,30.34,NE,44,0.0,0.0,70,0.00,,,0.00,meteohub,2013-11-30 16:29:00,
2013-11-30 08:34:00,47.5,38.1,30.34,NE,44,0.0,0.0,70,0.00,,,0.00,meteohub,2013-11-30 16:34:00,
2013-11-30 08:39:00,47.3,37.9,30.35,NE,44,0.0,1.0,70,0.00,,,0.00,meteohub,2013-11-30 16:39:00,
2013-11-30 08:44:00,47.1,38.5,30.35,NE,44,0.0,1.0,72,0.00,,,0.00,meteohub,2013-11-30 16:44:00,
2013-11-30 08:49:00,46.9,38.3,30.35,NE,44,0.0,1.0,72,0.00,,,0.00,meteohub,2013-11-30 16:49:00,
2013-11-30 08:54:00,46.9,38.7,30.35,NE,38,3.0,3.0,73,0.00,,,0.00,meteohub,2013-11-30 16:54:00,
2013-11-30 08:59:00,47.7,38.3,30.35,NE,40,3.0,5.0,70,0.00,,,0.00,meteohub,2013-11-30 16:59:00,
2013-11-30 09:04:00,50.0,38.7,30.35,NE,40,2.0,5.0,65,0.00,,,0.00,meteohub,2013-11-30 17:04:00,
2013-11-30 09:09:00,52.0,38.5,30.35,NE,41,2.0,5.0,60,0.00,,,0.00,meteohub,2013-11-30 17:09:00,
2013-11-30 09:14:00,53.2,38.5,30.35,NE,42,0.0,6.0,57,0.00,,,0.00,meteohub,2013-11-30 17:14:00,
2013-11-30 09:19:00,54.1,39.2,30.35,NE,47,0.0,6.0,57,0.00,,,0.00,meteohub,2013-11-30 17:19:00,
2013-11-30 09:24:00,54.7,39.4,30.35,NE,47,1.0,6.0,56,0.00,,,0.00,meteohub,2013-11-30 17:24:00,
2013-11-30 09:29:00,55.0,39.6,30.35,NE,53,1.0,4.0,56,0.00,,,0.00,meteohub,2013-11-30 17:29:00,
2013-11-30 09:34:00,55.4,39.6,30.35,NE,53,0.0,4.0,55,0.00,,,0.00,meteohub,2013-11-30 17:34:00,
2013-11-30 09:39:00,55.4,39.6,30.35,NE,53,1.0,4.0,55,0.00,,,0.00,meteohub,2013-11-30 17:39:00,
2013-11-30 09:44:00,55.6,39.2,30.36,NE,53,0.0,4.0,54,0.00,,,0.00,meteohub,2013-11-30 17:44:00,
2013-11-30 09:49:00,55.9,39.6,30.35,NE,53,3.0,3.0,54,0.00,,,0.00,meteohub,2013-11-30 17:49:00,
2013-11-30 09:54:00,56.5,39.6,30.35,NE,56,3.0,5.0,53,0.00,,,0.00,meteohub,2013-11-30 17:54:00,
2013-11-30 09:59:00,56.8,39.4,30.35,ENE,57,1.0,5.0,52,0.00,,,0.00,meteohub,2013-11-30 17:59:00,
2013-11-30 10:04:00,57.0,39.0,30.35,NE,46,1.0,5.0,51,0.00,,,0.00,meteohub,2013-11-30 18:04:00,
2013-11-30 10:09:00,57.4,38.8,30.35,NE,53,3.0,5.0,50,0.00,,,0.00,meteohub,2013-11-30 18:09:00,
2013-11-30 10:14:00,57.6,39.0,30.36,NE,49,4.0,6.0,50,0.00,,,0.00,meteohub,2013-11-30 18:14:00,
2013-11-30 10:19:00,57.9,39.4,30.36,North,11,3.0,6.0,50,0.00,,,0.00,meteohub,2013-11-30 18:19:00,
2013-11-30 10:24:00,58.3,40.3,30.36,NNE,22,1.0,6.0,51,0.00,,,0.00,meteohub,2013-11-30 18:24:00,
2013-11-30 10:29:00,58.5,39.9,30.36,NNE,22,0.0,5.0,50,0.00,,,0.00,meteohub,2013-11-30 18:29:00,
2013-11-30 10:34:00,58.8,39.7,30.36,NE,34,1.0,4.0,49,0.00,,,0.00,meteohub,2013-11-30 18:34:00,
2013-11-30 10:39:00,59.0,39.9,30.36,NE,41,4.0,5.0,49,0.00,,,0.00,meteohub,2013-11-30 18:39:00,
2013-11-30 10:44:00,59.2,40.1,30.36,NE,46,2.0,5.0,49,0.00,,,0.00,meteohub,2013-11-30 18:44:00,
2013-11-30 10:49:00,59.2,40.1,30.36,NE,56,2.0,5.0,49,0.00,,,0.00,meteohub,2013-11-30 18:49:00,
2013-11-30 10:54:00,59.2,39.6,30.36,ENE,61,3.0,7.0,48,0.00,,,0.00,meteohub,2013-11-30 18:54:00,
2013-11-30 10:59:00,59.4,39.7,30.36,ENE,61,2.0,7.0,48,0.00,,,0.00,meteohub,2013-11-30 18:59:00,
2013-11-30 11:04:00,59.7,39.9,30.36,ENE,61,2.0,7.0,48,0.00,,,0.00,meteohub,2013-11-30 19:04:00,
2013-11-30 11:09:00,60.3,39.9,30.35,ENE,61,1.0,4.0,47,0.00,,,0.00,meteohub,2013-11-30 19:09:00,
2013-11-30 11:14:00,60.4,39.6,30.35,ENE,61,0.0,3.0,46,0.00,,,0.00,meteohub,2013-11-30 19:14:00,
2013-11-30 11:19:00,60.6,39.7,30.35,ENE,61,1.0,2.0,46,0.00,,,0.00,meteohub,2013-11-30 19:19:00,
2013-11-30 11:24:00,61.3,39.7,30.35,ENE,61,0.0,2.0,45,0.00,,,0.00,meteohub,2013-11-30 19:24:00,
2013-11-30 11:29:00,61.9,40.3,30.35,ENE,61,0.0,2.0,45,0.00,,,0.00,meteohub,2013-11-30 19:29:00,
2013-11-30 11:34:00,62.2,38.8,30.35,ENE,59,1.0,2.0,42,0.00,,,0.00,meteohub,2013-11-30 19:34:00,
2013-11-30 11:39:00,62.2,38.8,30.35,NNE,21,3.0,4.0,42,0.00,,,0.00,meteohub,2013-11-30 19:39:00,
2013-11-30 11:44:00,62.2,38.8,30.35,NW,314,3.0,5.0,42,0.00,,,0.00,meteohub,2013-11-30 19:44:00,
2013-11-30 11:49:00,62.4,37.8,30.35,NNW,332,5.0,7.0,40,0.00,,,0.00,meteohub,2013-11-30 19:49:00,
2013-11-30 11:54:00,62.6,37.2,30.35,NE,47,2.0,7.0,39,0.00,,,0.00,meteohub,2013-11-30 19:54:00,
2013-11-30 11:59:00,62.8,38.1,30.34,NNE,24,2.0,7.0,40,0.00,,,0.00,meteohub,2013-11-30 19:59:00,
2013-11-30 12:04:00,62.8,38.1,30.34,NNE,22,3.0,7.0,40,0.00,,,0.00,meteohub,2013-11-30 20:04:00,
2013-11-30 12:09:00,62.8,38.1,30.34,North,10,4.0,7.0,40,0.00,,,0.00,meteohub,2013-11-30 20:09:00,
2013-11-30 12:14:00,62.8,37.4,30.34,NNE,33,3.0,8.0,39,0.00,,,0.00,meteohub,2013-11-30 20:14:00,
2013-11-30 12:19:00,63.0,38.3,30.34,NE,36,3.0,8.0,40,0.00,,,0.00,meteohub,2013-11-30 20:19:00,
2013-11-30 12:24:00,63.0,38.8,30.33,NE,37,1.0,8.0,41,0.00,,,0.00,meteohub,2013-11-30 20:24:00,
2013-11-30 12:29:00,63.0,38.8,30.33,NE,37,2.0,5.0,41,0.00,,,0.00,meteohub,2013-11-30 20:29:00,
2013-11-30 12:34:00,62.8,37.4,30.33,NE,40,3.0,4.0,39,0.00,,,0.00,meteohub,2013-11-30 20:34:00,
2013-11-30 12:39:00,62.4,38.5,30.32,NE,40,0.0,4.0,41,0.00,,,0.00,meteohub,2013-11-30 20:39:00,
2013-11-30 12:44:00,62.4,37.8,30.32,NE,38,3.0,4.0,40,0.00,,,0.00,meteohub,2013-11-30 20:44:00,
2013-11-30 12:49:00,62.6,37.9,30.32,NNE,27,0.0,6.0,40,0.00,,,0.00,meteohub,2013-11-30 20:49:00,
2013-11-30 12:54:00,63.1,37.8,30.32,NNE,28,0.0,6.0,39,0.00,,,0.00,meteohub,2013-11-30 20:54:00,
2013-11-30 12:59:00,63.3,37.9,30.31,NNE,29,1.0,6.0,39,0.00,,,0.00,meteohub,2013-11-30 20:59:00,
2013-11-30 13:04:00,63.7,38.3,30.32,NNE,29,3.0,4.0,39,0.00,,,0.00,meteohub,2013-11-30 21:04:00,
2013-11-30 13:09:00,63.5,37.4,30.32,NE,36,0.0,3.0,38,0.00,,,0.00,meteohub,2013-11-30 21:09:00,
2013-11-30 13:14:00,63.9,37.8,30.31,ENE,63,0.0,3.0,38,0.00,,,0.00,meteohub,2013-11-30 21:14:00,
2013-11-30 13:19:00,64.0,37.9,30.31,ENE,71,3.0,4.0,38,0.00,,,0.00,meteohub,2013-11-30 21:19:00,
2013-11-30 13:24:00,64.2,37.4,30.31,ENE,71,1.0,4.0,37,0.00,,,0.00,meteohub,2013-11-30 21:24:00,
2013-11-30 13:29:00,64.9,37.4,30.31,SSW,205,2.0,4.0,36,0.00,,,0.00,meteohub,2013-11-30 21:29:00,
2013-11-30 13:34:00,65.5,37.8,30.31,SSW,205,1.0,4.0,36,0.00,,,0.00,meteohub,2013-11-30 21:34:00,
2013-11-30 13:39:00,65.8,38.1,30.31,SSW,205,0.0,4.0,36,0.00,,,0.00,meteohub,2013-11-30 21:39:00,
2013-11-30 13:44:00,66.4,38.7,30.31,SSW,205,1.0,4.0,36,0.00,,,0.00,meteohub,2013-11-30 21:44:00,
2013-11-30 13:49:00,66.2,37.8,30.30,ENE,63,0.0,4.0,35,0.00,,,0.00,meteohub,2013-11-30 21:49:00,
2013-11-30 13:55:00,66.0,37.6,30.30,ENE,63,2.0,6.0,35,0.00,,,0.00,meteohub,2013-11-30 21:55:00,
2013-11-30 13:59:00,66.2,38.5,30.30,ENE,63,1.0,6.0,36,0.00,,,0.00,meteohub,2013-11-30 21:59:00,
2013-11-30 14:05:00,65.8,36.7,30.30,ENE,65,1.0,6.0,34,0.00,,,0.00,meteohub,2013-11-30 22:05:00,
2013-11-30 14:10:00,65.8,38.1,30.30,ENE,65,0.0,3.0,36,0.00,,,0.00,meteohub,2013-11-30 22:10:00,
2013-11-30 14:15:00,66.0,41.0,30.30,ENE,78,2.0,3.0,40,0.00,,,0.00,meteohub,2013-11-30 22:15:00,
2013-11-30 14:20:00,66.2,41.2,30.30,SSW,192,1.0,4.0,40,0.00,,,0.00,meteohub,2013-11-30 22:20:00,
2013-11-30 14:25:00,66.0,41.0,30.30,South,182,1.0,7.0,40,0.00,,,0.00,meteohub,2013-11-30 22:25:00,
2013-11-30 14:30:00,66.2,41.2,30.30,SSW,205,1.0,7.0,40,0.00,,,0.00,meteohub,2013-11-30 22:30:00,
2013-11-30 14:35:00,66.2,41.2,30.30,SSW,208,1.0,7.0,40,0.00,,,0.00,meteohub,2013-11-30 22:35:00,
2013-11-30 14:40:00,66.4,41.4,30.30,SSW,200,3.0,6.0,40,0.00,,,0.00,meteohub,2013-11-30 22:40:00,
2013-11-30 14:45:00,65.8,40.8,30.30,South,174,0.0,6.0,40,0.00,,,0.00,meteohub,2013-11-30 22:45:00,
2013-11-30 14:50:00,65.8,40.8,30.30,South,174,1.0,6.0,40,0.00,,,0.00,meteohub,2013-11-30 22:50:00,
2013-11-30 14:55:00,66.0,41.0,30.29,South,173,1.0,6.0,40,0.00,,,0.00,meteohub,2013-11-30 22:55:00,
2013-11-30 15:00:00,66.2,41.2,30.29,SSW,213,2.0,5.0,40,0.00,,,0.00,meteohub,2013-11-30 23:00:00,
2013-11-30 15:05:00,66.2,41.2,30.29,SW,221,2.0,5.0,40,0.00,,,0.00,meteohub,2013-11-30 23:05:00,
2013-11-30 15:10:00,66.0,40.3,30.29,SW,215,2.0,6.0,39,0.00,,,0.00,meteohub,2013-11-30 23:10:00,
2013-11-30 15:15:00,65.8,40.8,30.29,West,261,3.0,6.0,40,0.00,,,0.00,meteohub,2013-11-30 23:15:00,
2013-11-30 15:20:00,65.8,40.8,30.30,SSW,192,4.0,7.0,40,0.00,,,0.00,meteohub,2013-11-30 23:20:00,
2013-11-30 15:25:00,65.7,41.4,30.30,SSW,194,3.0,7.0,41,0.00,,,0.00,meteohub,2013-11-30 23:25:00,
2013-11-30 15:30:00,65.5,41.2,30.30,SW,225,3.0,7.0,41,0.00,,,0.00,meteohub,2013-11-30 23:30:00,
2013-11-30 15:35:00,65.3,41.0,30.30,SW,232,4.0,6.0,41,0.00,,,0.00,meteohub,2013-11-30 23:35:00,
2013-11-30 15:40:00,65.1,41.5,30.30,SW,219,1.0,6.0,42,0.00,,,0.00,meteohub,2013-11-30 23:40:00,
2013-11-30 15:45:00,64.9,41.4,30.30,SW,220,2.0,6.0,42,0.00,,,0.00,meteohub,2013-11-30 23:45:00,
2013-11-30 15:50:00,64.9,41.4,30.30,SW,220,1.0,6.0,42,0.00,,,0.00,meteohub,2013-11-30 23:50:00,
2013-11-30 15:56:00,64.8,41.7,30.30,SW,216,3.0,5.0,43,0.00,,,0.00,meteohub,2013-11-30 23:56:00,
2013-11-30 16:01:00,64.6,41.5,30.30,SW,216,3.0,5.0,43,0.00,,,0.00,meteohub,2013-12-01 00:01:00,
2013-11-30 16:06:00,64.2,41.9,30.30,SW,215,5.0,5.0,44,0.00,,,0.00,meteohub,2013-12-01 00:06:00,
2013-11-30 16:11:00,63.9,42.1,30.30,SSW,210,3.0,5.0,45,0.00,,,0.00,meteohub,2013-12-01 00:11:00,
2013-11-30 16:16:00,63.3,42.8,30.30,SSW,209,3.0,6.0,47,0.00,,,0.00,meteohub,2013-12-01 00:16:00,
2013-11-30 16:21:00,62.8,42.8,30.30,SSW,201,4.0,6.0,48,0.00,,,0.00,meteohub,2013-12-01 00:21:00,
2013-11-30 16:26:00,62.1,43.2,30.31,SSW,198,3.0,6.0,50,0.00,,,0.00,meteohub,2013-12-01 00:26:00,
2013-11-30 16:31:00,61.5,43.2,30.31,SSW,198,4.0,6.0,51,0.00,,,0.00,meteohub,2013-12-01 00:31:00,
2013-11-30 16:36:00,61.0,43.7,30.31,SSW,198,4.0,5.0,53,0.00,,,0.00,meteohub,2013-12-01 00:36:00,
2013-11-30 16:41:00,60.3,43.5,30.31,SSW,198,2.0,5.0,54,0.00,,,0.00,meteohub,2013-12-01 00:41:00,
2013-11-30 16:46:00,59.5,43.3,30.31,SSW,198,1.0,5.0,55,0.00,,,0.00,meteohub,2013-12-01 00:46:00,
2013-11-30 16:51:00,59.2,43.0,30.31,SSW,198,2.0,5.0,55,0.00,,,0.00,meteohub,2013-12-01 00:51:00,
2013-11-30 16:56:00,58.6,43.0,30.31,SSW,198,1.0,5.0,56,0.00,,,0.00,meteohub,2013-12-01 00:56:00,
2013-11-30 17:01:00,58.1,43.0,30.31,SSW,198,1.0,5.0,57,0.00,,,0.00,meteohub,2013-12-01 01:01:00,
2013-11-30 17:06:00,57.7,42.6,30.31,SSW,198,1.0,3.0,57,0.00,,,0.00,meteohub,2013-12-01 01:06:00,
2013-11-30 17:11:00,57.6,42.4,30.31,SSW,198,1.0,2.0,57,0.00,,,0.00,meteohub,2013-12-01 01:11:00,
2013-11-30 17:16:00,57.6,43.0,30.31,SSW,198,1.0,2.0,58,0.00,,,0.00,meteohub,2013-12-01 01:16:00,
2013-11-30 17:21:00,57.6,43.0,30.31,SSW,198,1.0,2.0,58,0.00,,,0.00,meteohub,2013-12-01 01:21:00,
2013-11-30 17:26:00,57.6,43.0,30.31,SSW,198,0.0,2.0,58,0.00,,,0.00,meteohub,2013-12-01 01:26:00,
2013-11-30 17:31:00,57.6,43.0,30.31,SSW,198,0.0,2.0,58,0.00,,,0.00,meteohub,2013-12-01 01:31:00,
2013-11-30 17:36:00,57.4,42.8,30.31,SSW,198,0.0,2.0,58,0.00,,,0.00,meteohub,2013-12-01 01:36:00,
2013-11-30 17:41:00,57.0,42.4,30.31,SSW,198,0.0,0.0,58,0.00,,,0.00,meteohub,2013-12-01 01:41:00,
2013-11-30 17:43:00,57.0,42.4,30.31,SSW,198,0.0,0.0,58,0.00,,,0.00,meteohub,2013-12-01 01:43:00,
2013-11-30 17:48:00,56.7,42.4,30.31,SSW,198,0.0,1.0,59,0.00,,,0.00,meteohub,2013-12-01 01:48:00,
2013-11-30 17:53:00,56.1,42.4,30.32,SSW,198,0.0,1.0,60,0.00,,,0.00,meteohub,2013-12-01 01:53:00,
2013-11-30 17:58:00,55.8,42.4,30.32,SSW,198,0.0,1.0,61,0.00,,,0.00,meteohub,2013-12-01 01:58:00,
2013-11-30 18:03:00,55.8,42.1,30.32,SSW,198,0.0,1.0,60,0.00,,,0.00,meteohub,2013-12-01 02:03:00,
2013-11-30 18:08:00,55.6,41.9,30.32,SSW,198,0.0,1.0,60,0.00,,,0.00,meteohub,2013-12-01 02:08:00,
2013-11-30 18:13:00,55.4,41.7,30.32,SSW,198,0.0,1.0,60,0.00,,,0.00,meteohub,2013-12-01 02:13:00,
2013-11-30 18:18:00,55.2,42.1,30.32,SSW,198,0.0,0.0,61,0.00,,,0.00,meteohub,2013-12-01 02:18:00,
2013-11-30 18:23:00,54.9,41.7,30.32,SSW,198,0.0,0.0,61,0.00,,,0.00,meteohub,2013-12-01 02:23:00,
2013-11-30 18:28:00,54.5,41.7,30.32,SSW,198,0.0,1.0,62,0.00,,,0.00,meteohub,2013-12-01 02:28:00,
2013-11-30 18:33:00,54.0,41.7,30.32,SSW,198,0.0,1.0,63,0.00,,,0.00,meteohub,2013-12-01 02:33:00,
2013-11-30 18:38:00,53.4,41.5,30.32,SSW,198,0.0,1.0,64,0.00,,,0.00,meteohub,2013-12-01 02:38:00,
2013-11-30 18:43:00,53.1,41.2,30.32,SSW,198,0.0,1.0,64,0.00,,,0.00,meteohub,2013-12-01 02:43:00,
2013-11-30 18:48:00,52.7,40.8,30.32,SSW,198,0.0,1.0,64,0.00,,,0.00,meteohub,2013-12-01 02:48:00,
2013-11-30 18:53:00,52.3,40.5,30.32,SSW,198,0.0,0.0,64,0.00,,,0.00,meteohub,2013-12-01 02:53:00,
2013-11-30 18:58:00,52.2,41.2,30.32,SSW,198,1.0,3.0,66,0.00,,,0.00,meteohub,2013-12-01 02:58:00,
2013-11-30 19:03:00,52.0,41.0,30.32,SSW,198,0.0,3.0,66,0.00,,,0.00,meteohub,2013-12-01 03:03:00,
2013-11-30 19:08:00,51.4,40.8,30.32,SSW,198,0.0,3.0,67,0.00,,,0.00,meteohub,2013-12-01 03:08:00,
2013-11-30 19:13:00,51.3,41.0,30.32,SSW,198,0.0,3.0,68,0.00,,,0.00,meteohub,2013-12-01 03:13:00,
2013-11-30 19:18:00,50.9,40.3,30.33,SSW,198,0.0,0.0,67,0.00,,,0.00,meteohub,2013-12-01 03:18:00,
2013-11-30 19:23:00,50.4,40.6,30.33,SSW,198,0.0,0.0,69,0.00,,,0.00,meteohub,2013-12-01 03:23:00,
2013-11-30 19:28:00,50.0,40.3,30.33,SSW,198,0.0,1.0,69,0.00,,,0.00,meteohub,2013-12-01 03:28:00,
2013-11-30 19:33:00,49.6,40.3,30.33,SSW,198,0.0,1.0,70,0.00,,,0.00,meteohub,2013-12-01 03:33:00,
2013-11-30 19:38:00,49.1,40.1,30.33,SSW,198,0.0,1.0,71,0.00,,,0.00,meteohub,2013-12-01 03:38:00,
2013-11-30 19:43:00,48.7,40.1,30.33,SSW,198,0.0,1.0,72,0.00,,,0.00,meteohub,2013-12-01 03:43:00,
2013-11-30 19:48:00,48.6,39.9,30.33,SSW,198,0.0,1.0,72,0.00,,,0.00,meteohub,2013-12-01 03:48:00,
2013-11-30 19:53:00,48.4,40.1,30.32,SSW,198,0.0,0.0,73,0.00,,,0.00,meteohub,2013-12-01 03:53:00,
2013-11-30 19:58:00,47.8,39.9,30.33,SSW,198,0.0,1.0,74,0.00,,,0.00,meteohub,2013-12-01 03:58:00,
2013-11-30 20:03:00,47.7,39.7,30.33,SSW,198,1.0,2.0,74,0.00,,,0.00,meteohub,2013-12-01 04:03:00,
2013-11-30 20:08:00,47.5,39.6,30.33,SSW,198,2.0,2.0,74,0.00,,,0.00,meteohub,2013-12-01 04:08:00,
2013-11-30 20:13:00,47.3,39.7,30.33,SSW,198,0.0,2.0,75,0.00,,,0.00,meteohub,2013-12-01 04:13:00,
2013-11-30 20:18:00,47.1,39.2,30.33,SSW,198,0.0,2.0,74,0.00,,,0.00,meteohub,2013-12-01 04:18:00,
2013-11-30 20:23:00,46.8,39.2,30.33,SSW,198,2.0,2.0,75,0.00,,,0.00,meteohub,2013-12-01 04:23:00,
2013-11-30 20:28:00,46.4,39.2,30.33,SSW,198,0.0,2.0,76,0.00,,,0.00,meteohub,2013-12-01 04:28:00,
2013-11-30 20:33:00,46.0,38.8,30.33,SSW,198,0.0,3.0,76,0.00,,,0.00,meteohub,2013-12-01 04:33:00,
2013-11-30 20:38:00,45.9,38.7,30.33,SSW,198,0.0,3.0,76,0.00,,,0.00,meteohub,2013-12-01 04:38:00,
2013-11-30 20:43:00,45.7,38.8,30.33,SSW,198,0.0,3.0,77,0.00,,,0.00,meteohub,2013-12-01 04:43:00,
2013-11-30 20:48:00,45.5,38.7,30.33,SSW,198,0.0,2.0,77,0.00,,,0.00,meteohub,2013-12-01 04:48:00,
2013-11-30 20:53:00,45.3,38.5,30.33,SSW,198,0.0,1.0,77,0.00,,,0.00,meteohub,2013-12-01 04:53:00,
2013-11-30 20:58:00,45.1,38.3,30.33,SSW,198,0.0,1.0,77,0.00,,,0.00,meteohub,2013-12-01 04:58:00,
2013-11-30 21:01:00,45.1,38.3,30.33,SSW,198,1.0,2.0,77,0.00,,,0.00,meteohub,2013-12-01 05:01:00,
2013-11-30 21:07:00,45.1,38.3,30.33,SSW,198,3.0,3.0,77,0.00,,,0.00,meteohub,2013-12-01 05:07:00,
2013-11-30 21:12:00,45.1,38.3,30.33,SSW,198,2.0,4.0,77,0.00,,,0.00,meteohub,2013-12-01 05:12:00,
2013-11-30 21:17:00,45.0,38.1,30.33,SSW,198,1.0,4.0,77,0.00,,,0.00,meteohub,2013-12-01 05:17:00,
2013-11-30 21:22:00,45.0,38.1,30.33,SSW,198,0.0,4.0,77,0.00,,,0.00,meteohub,2013-12-01 05:22:00,
2013-11-30 21:27:00,44.8,37.9,30.33,SSW,198,0.0,2.0,77,0.00,,,0.00,meteohub,2013-12-01 05:27:00,
2013-11-30 21:32:00,44.8,38.3,30.32,SSW,198,0.0,1.0,78,0.00,,,0.00,meteohub,2013-12-01 05:32:00,
2013-11-30 21:37:00,44.8,37.9,30.32,SSW,198,0.0,1.0,77,0.00,,,0.00,meteohub,2013-12-01 05:37:00,
2013-11-30 21:42:00,45.0,38.1,30.32,SSW,198,0.0,2.0,77,0.00,,,0.00,meteohub,2013-12-01 05:42:00,
2013-11-30 21:47:00,45.7,38.5,30.33,SSW,198,0.0,3.0,76,0.00,,,0.00,meteohub,2013-12-01 05:47:00,
2013-11-30 21:52:00,45.9,38.3,30.33,SSW,198,0.0,3.0,75,0.00,,,0.00,meteohub,2013-12-01 05:52:00,
2013-11-30 21:57:00,46.0,38.5,30.33,SSW,198,0.0,3.0,75,0.00,,,0.00,meteohub,2013-12-01 05:57:00,
2013-11-30 22:02:00,46.0,38.3,30.33,SSW,198,0.0,2.0,74,0.00,,,0.00,meteohub,2013-12-01 06:02:00,
2013-11-30 22:07:00,46.0,38.5,30.33,SSW,198,0.0,2.0,75,0.00,,,0.00,meteohub,2013-12-01 06:07:00,
2013-11-30 22:12:00,46.2,38.1,30.33,SSW,198,2.0,3.0,73,0.00,,,0.00,meteohub,2013-12-01 06:12:00,
2013-11-30 22:17:00,46.8,38.3,30.34,SSW,198,2.0,3.0,72,0.00,,,0.00,meteohub,2013-12-01 06:17:00,
2013-11-30 22:22:00,46.9,38.3,30.34,SSW,198,2.0,4.0,72,0.00,,,0.00,meteohub,2013-12-01 06:22:00,
2013-11-30 22:27:00,47.1,38.1,30.34,SSW,198,3.0,4.0,71,0.00,,,0.00,meteohub,2013-12-01 06:27:00,
2013-11-30 22:32:00,47.5,38.1,30.34,SSW,198,0.0,4.0,70,0.00,,,0.00,meteohub,2013-12-01 06:32:00,
2013-11-30 22:37:00,47.7,38.3,30.35,SSW,198,1.0,4.0,70,0.00,,,0.00,meteohub,2013-12-01 06:37:00,
2013-11-30 22:42:00,47.8,38.5,30.35,SSW,198,2.0,4.0,70,0.00,,,0.00,meteohub,2013-12-01 06:42:00,
2013-11-30 22:47:00,48.4,38.7,30.35,SSW,198,2.0,4.0,69,0.00,,,0.00,meteohub,2013-12-01 06:47:00,
2013-11-30 22:52:00,48.6,38.5,30.35,SSW,198,2.0,3.0,68,0.00,,,0.00,meteohub,2013-12-01 06:52:00,
2013-11-30 22:57:00,48.7,38.3,30.35,SSW,198,1.0,3.0,67,0.00,,,0.00,meteohub,2013-12-01 06:57:00,
2013-11-30 23:02:00,49.3,38.5,30.35,SSW,198,1.0,4.0,66,0.00,,,0.00,meteohub,2013-12-01 07:02:00,
2013-11-30 23:07:00,50.0,38.3,30.35,SSW,198,3.0,4.0,64,0.00,,,0.00,meteohub,2013-12-01 07:07:00,
2013-11-30 23:12:00,51.1,38.5,30.35,SSW,196,3.0,4.0,62,0.00,,,0.00,meteohub,2013-12-01 07:12:00,
2013-11-30 23:17:00,51.4,38.5,30.35,ESE,111,4.0,5.0,61,0.00,,,0.00,meteohub,2013-12-01 07:17:00,
2013-11-30 23:22:00,52.7,38.8,30.35,NE,43,4.0,6.0,59,0.00,,,0.00,meteohub,2013-12-01 07:22:00,
2013-11-30 23:27:00,54.0,38.7,30.35,NNE,32,3.0,8.0,56,0.00,,,0.00,meteohub,2013-12-01 07:27:00,
2013-11-30 23:33:00,55.4,39.0,30.36,NE,46,4.0,8.0,54,0.00,,,0.00,meteohub,2013-12-01 07:33:00,
2013-11-30 23:38:00,56.7,39.2,30.36,NE,34,1.0,8.0,52,0.00,,,0.00,meteohub,2013-12-01 07:38:00,
2013-11-30 23:43:00,57.7,39.2,30.36,NE,36,4.0,8.0,50,0.00,,,0.00,meteohub,2013-12-01 07:43:00,
2013-11-30 23:48:00,58.6,39.0,30.36,NNE,18,5.0,10.0,48,0.00,,,0.00,meteohub,2013-12-01 07:48:00,
2013-11-30 23:53:00,59.4,39.2,30.36,NE,42,5.0,10.0,47,0.00,,,0.00,meteohub,2013-12-01 07:53:00,
2013-11-30 23:58:00,59.5,39.4,30.36,NE,55,8.0,10.0,47,0.00,,,0.00,meteohub,2013-12-01 07:58:00,